sensor_id;sensor_type;location;lat;lon;timestamp;pressure;altitude;pressure_sealevel;temperature;humidity
9893;BME280;4985;49.092;8.542;2023-03-13T00:01:34;98806.50;;;13.16;53.25
9893;BME280;4985;49.092;8.542;2023-03-13T00:04:01;98796.94;;;13.15;53.24
9893;BME280;4985;49.092;8.542;2023-03-13T00:06:29;98794.31;;;13.15;53.25
9893;BME280;4985;49.092;8.542;2023-03-13T00:08:59;98791.66;;;13.15;53.24
9893;BME280;4985;49.092;8.542;2023-03-13T00:11:26;98799.59;;;13.15;53.25
9893;BME280;4985;49.092;8.542;2023-03-13T00:13:53;98795.94;;;13.16;53.25
9893;BME280;4985;49.092;8.542;2023-03-13T00:16:20;98789.03;;;13.15;53.26
9893;BME280;4985;49.092;8.542;2023-03-13T00:18:49;98792.28;;;13.17;53.26
9893;BME280;4985;49.092;8.542;2023-03-13T00:21:17;98784.56;;;13.16;53.27
9893;BME280;4985;49.092;8.542;2023-03-13T00:23:44;98780.09;;;13.16;53.25
9893;BME280;4985;49.092;8.542;2023-03-13T00:26:14;98778.25;;;13.17;53.24
9893;BME280;4985;49.092;8.542;2023-03-13T00:28:42;98772.78;;;13.18;53.22
9893;BME280;4985;49.092;8.542;2023-03-13T00:31:10;98773.16;;;13.15;53.21
9893;BME280;4985;49.092;8.542;2023-03-13T00:33:38;98770.97;;;13.19;53.22
9893;BME280;4985;49.092;8.542;2023-03-13T00:36:06;98764.84;;;13.18;53.21
9893;BME280;4985;49.092;8.542;2023-03-13T00:38:34;98760.97;;;13.14;53.22
9893;BME280;4985;49.092;8.542;2023-03-13T00:41:02;98762.22;;;13.18;53.21
9893;BME280;4985;49.092;8.542;2023-03-13T00:43:30;98763.88;;;13.19;53.22
9893;BME280;4985;49.092;8.542;2023-03-13T00:45:57;98755.12;;;13.19;53.20
9893;BME280;4985;49.092;8.542;2023-03-13T00:48:24;98750.47;;;13.21;53.21
9893;BME280;4985;49.092;8.542;2023-03-13T00:50:50;98745.16;;;13.21;53.20
9893;BME280;4985;49.092;8.542;2023-03-13T00:53:17;98745.16;;;13.21;53.19
9893;BME280;4985;49.092;8.542;2023-03-13T00:55:51;98740.69;;;13.21;53.17
9893;BME280;4985;49.092;8.542;2023-03-13T00:58:18;98734.41;;;13.22;53.14
9893;BME280;4985;49.092;8.542;2023-03-13T01:00:46;98724.66;;;13.23;53.14
9893;BME280;4985;49.092;8.542;2023-03-13T01:03:13;98724.66;;;13.23;53.11
9893;BME280;4985;49.092;8.542;2023-03-13T01:05:40;98722.81;;;13.23;53.13
9893;BME280;4985;49.092;8.542;2023-03-13T01:08:06;98721.19;;;13.22;53.13
9893;BME280;4985;49.092;8.542;2023-03-13T01:10:33;98721.19;;;13.22;53.12
9893;BME280;4985;49.092;8.542;2023-03-13T01:13:00;98719.34;;;13.23;53.12
9893;BME280;4985;49.092;8.542;2023-03-13T01:15:29;98717.53;;;13.23;53.13
9893;BME280;4985;49.092;8.542;2023-03-13T01:17:56;98714.06;;;13.23;53.12
9893;BME280;4985;49.092;8.542;2023-03-13T01:20:23;98703.31;;;13.24;53.11
9893;BME280;4985;49.092;8.542;2023-03-13T01:22:50;98698.00;;;13.24;53.12
9893;BME280;4985;49.092;8.542;2023-03-13T01:25:16;98698.00;;;13.24;53.09
9893;BME280;4985;49.092;8.542;2023-03-13T01:27:43;98693.75;;;13.23;53.12
9893;BME280;4985;49.092;8.542;2023-03-13T01:30:10;98689.28;;;13.24;53.12
9893;BME280;4985;49.092;8.542;2023-03-13T01:32:37;98683.16;;;13.23;53.12
9893;BME280;4985;49.092;8.542;2023-03-13T01:35:06;98688.25;;;13.25;53.09
9893;BME280;4985;49.092;8.542;2023-03-13T01:37:32;98676.88;;;13.24;53.09
9893;BME280;4985;49.092;8.542;2023-03-13T01:39:59;98679.34;;;13.26;53.08
9893;BME280;4985;49.092;8.542;2023-03-13T01:42:25;98667.97;;;13.25;53.09
9893;BME280;4985;49.092;8.542;2023-03-13T01:44:53;98656.53;;;13.25;53.08
9893;BME280;4985;49.092;8.542;2023-03-13T01:47:21;98651.25;;;13.25;53.08
9893;BME280;4985;49.092;8.542;2023-03-13T01:49:48;98645.97;;;13.25;53.08
9893;BME280;4985;49.092;8.542;2023-03-13T01:52:20;98645.81;;;13.26;53.08
9893;BME280;4985;49.092;8.542;2023-03-13T01:54:51;98647.44;;;13.27;53.07
9893;BME280;4985;49.092;8.542;2023-03-13T01:57:23;98643.97;;;13.27;53.07
9893;BME280;4985;49.092;8.542;2023-03-13T01:59:52;98638.69;;;13.27;53.09
9893;BME280;4985;49.092;8.542;2023-03-13T02:02:20;98627.31;;;13.26;53.09
9893;BME280;4985;49.092;8.542;2023-03-13T02:04:50;98628.13;;;13.27;53.08
9893;BME280;4985;49.092;8.542;2023-03-13T02:07:23;98623.66;;;13.27;53.07
9893;BME280;4985;49.092;8.542;2023-03-13T02:09:52;98635.22;;;13.26;53.08
9893;BME280;4985;49.092;8.542;2023-03-13T02:12:24;98624.81;;;13.25;53.09
9893;BME280;4985;49.092;8.542;2023-03-13T02:14:53;98627.31;;;13.26;53.12
9893;BME280;4985;49.092;8.542;2023-03-13T02:17:21;98613.44;;;13.24;53.12
9893;BME280;4985;49.092;8.542;2023-03-13T02:19:49;98620.38;;;13.25;53.13
9893;BME280;4985;49.092;8.542;2023-03-13T02:22:23;98609.81;;;13.25;53.14
9893;BME280;4985;49.092;8.542;2023-03-13T02:24:55;98607.16;;;13.25;53.15
9893;BME280;4985;49.092;8.542;2023-03-13T02:27:24;98603.69;;;13.25;53.16
9893;BME280;4985;49.092;8.542;2023-03-13T02:29:51;98600.22;;;13.24;53.16
9893;BME280;4985;49.092;8.542;2023-03-13T02:32:18;98601.03;;;13.25;53.15
9893;BME280;4985;49.092;8.542;2023-03-13T02:34:47;98600.88;;;13.26;53.15
9893;BME280;4985;49.092;8.542;2023-03-13T02:37:16;98598.41;;;13.25;53.17
9893;BME280;4985;49.092;8.542;2023-03-13T02:39:46;98589.66;;;13.24;53.17
9893;BME280;4985;49.092;8.542;2023-03-13T02:42:16;98585.19;;;13.25;53.19
9893;BME280;4985;49.092;8.542;2023-03-13T02:44:46;98569.53;;;13.23;53.20
9893;BME280;4985;49.092;8.542;2023-03-13T02:47:17;98565.88;;;13.24;53.21
9893;BME280;4985;49.092;8.542;2023-03-13T02:49:43;98564.03;;;13.25;53.19
9893;BME280;4985;49.092;8.542;2023-03-13T02:52:12;98557.78;;;13.26;53.18
9893;BME280;4985;49.092;8.542;2023-03-13T02:54:40;98561.22;;;13.26;53.17
9893;BME280;4985;49.092;8.542;2023-03-13T02:57:07;98555.94;;;13.26;53.16
9893;BME280;4985;49.092;8.542;2023-03-13T02:59:34;98553.28;;;13.26;53.17
9893;BME280;4985;49.092;8.542;2023-03-13T03:02:02;98549.03;;;13.25;53.19
9893;BME280;4985;49.092;8.542;2023-03-13T03:04:29;98548.00;;;13.26;53.19
9893;BME280;4985;49.092;8.542;2023-03-13T03:06:56;98541.91;;;13.26;53.19
9893;BME280;4985;49.092;8.542;2023-03-13T03:09:23;98538.44;;;13.25;53.19
9893;BME280;4985;49.092;8.542;2023-03-13T03:11:49;98540.09;;;13.26;53.19
9893;BME280;4985;49.092;8.542;2023-03-13T03:14:16;98532.16;;;13.26;53.18
9893;BME280;4985;49.092;8.542;2023-03-13T03:16:43;98538.25;;;13.27;53.18
9893;BME280;4985;49.092;8.542;2023-03-13T03:19:11;98532.75;;;13.28;53.18
9893;BME280;4985;49.092;8.542;2023-03-13T03:21:37;98530.13;;;13.28;53.18
9893;BME280;4985;49.092;8.542;2023-03-13T03:24:04;98519.56;;;13.28;53.16
9893;BME280;4985;49.092;8.542;2023-03-13T03:26:31;98524.84;;;13.28;53.16
9893;BME280;4985;49.092;8.542;2023-03-13T03:28:58;98530.13;;;13.28;53.13
9893;BME280;4985;49.092;8.542;2023-03-13T03:31:25;98524.63;;;13.30;53.12
9893;BME280;4985;49.092;8.542;2023-03-13T03:33:51;98525.44;;;13.30;53.10
9893;BME280;4985;49.092;8.542;2023-03-13T03:36:21;98524.44;;;13.31;53.09
9893;BME280;4985;49.092;8.542;2023-03-13T03:38:48;98518.72;;;13.28;53.07
9893;BME280;4985;49.092;8.542;2023-03-13T03:41:15;98521.59;;;13.33;53.06
9893;BME280;4985;49.092;8.542;2023-03-13T03:43:43;98518.12;;;13.32;53.03
9893;BME280;4985;49.092;8.542;2023-03-13T03:46:11;98530.94;;;13.35;52.99
9893;BME280;4985;49.092;8.542;2023-03-13T03:48:38;98522.03;;;13.36;52.95
9893;BME280;4985;49.092;8.542;2023-03-13T03:51:05;98525.66;;;13.35;52.94
9893;BME280;4985;49.092;8.542;2023-03-13T03:53:33;98519.38;;;13.36;52.92
9893;BME280;4985;49.092;8.542;2023-03-13T03:56:00;98514.47;;;13.33;52.91
9893;BME280;4985;49.092;8.542;2023-03-13T03:58:27;98525.28;;;13.38;52.91
9893;BME280;4985;49.092;8.542;2023-03-13T04:00:56;98518.34;;;13.37;52.92
9893;BME280;4985;49.092;8.542;2023-03-13T04:03:23;98521.81;;;13.38;52.90
9893;BME280;4985;49.092;8.542;2023-03-13T04:05:50;98516.72;;;13.36;52.92
9893;BME280;4985;49.092;8.542;2023-03-13T04:08:17;98495.59;;;13.36;52.93
9893;BME280;4985;49.092;8.542;2023-03-13T04:10:44;98496.56;;;13.35;52.96
9893;BME280;4985;49.092;8.542;2023-03-13T04:13:11;98489.66;;;13.34;53.02
9893;BME280;4985;49.092;8.542;2023-03-13T04:15:38;98489.66;;;13.34;53.04
9893;BME280;4985;49.092;8.542;2023-03-13T04:18:05;98482.75;;;13.33;53.05
9893;BME280;4985;49.092;8.542;2023-03-13T04:20:32;98477.47;;;13.33;53.06
9893;BME280;4985;49.092;8.542;2023-03-13T04:22:58;98476.44;;;13.34;53.05
9893;BME280;4985;49.092;8.542;2023-03-13T04:25:25;98467.69;;;13.34;53.06
9893;BME280;4985;49.092;8.542;2023-03-13T04:27:53;98469.94;;;13.30;53.07
9893;BME280;4985;49.092;8.542;2023-03-13T04:30:19;98473.19;;;13.32;53.08
9893;BME280;4985;49.092;8.542;2023-03-13T04:32:46;98462.63;;;13.32;53.11
9893;BME280;4985;49.092;8.542;2023-03-13T04:35:15;98447.78;;;13.31;53.13
9893;BME280;4985;49.092;8.542;2023-03-13T04:37:42;98444.72;;;13.34;53.12
9893;BME280;4985;49.092;8.542;2023-03-13T04:40:09;98453.66;;;13.33;53.12
9893;BME280;4985;49.092;8.542;2023-03-13T04:42:36;98444.13;;;13.32;53.12
9893;BME280;4985;49.092;8.542;2023-03-13T04:45:06;98437.00;;;13.33;53.12
9893;BME280;4985;49.092;8.542;2023-03-13T04:47:34;98437.81;;;13.33;53.11
9893;BME280;4985;49.092;8.542;2023-03-13T04:50:01;98436.19;;;13.32;53.12
9893;BME280;4985;49.092;8.542;2023-03-13T04:52:27;98441.47;;;13.32;53.15
9893;BME280;4985;49.092;8.542;2023-03-13T04:54:54;98436.19;;;13.32;53.17
9893;BME280;4985;49.092;8.542;2023-03-13T04:57:20;98444.31;;;13.31;53.18
9893;BME280;4985;49.092;8.542;2023-03-13T04:59:47;98440.66;;;13.32;53.17
9893;BME280;4985;49.092;8.542;2023-03-13T05:02:15;98439.84;;;13.31;53.19
9893;BME280;4985;49.092;8.542;2023-03-13T05:04:41;98434.56;;;13.31;53.20
9893;BME280;4985;49.092;8.542;2023-03-13T05:07:08;98439.03;;;13.31;53.23
9893;BME280;4985;49.092;8.542;2023-03-13T05:09:34;98441.69;;;13.31;53.22
9893;BME280;4985;49.092;8.542;2023-03-13T05:12:01;98435.38;;;13.32;53.23
9893;BME280;4985;49.092;8.542;2023-03-13T05:14:27;98424.81;;;13.32;53.22
9893;BME280;4985;49.092;8.542;2023-03-13T05:16:54;98410.78;;;13.31;53.23
9893;BME280;4985;49.092;8.542;2023-03-13T05:19:22;98420.34;;;13.32;53.23
9893;BME280;4985;49.092;8.542;2023-03-13T05:21:49;98420.75;;;13.29;53.24
9893;BME280;4985;49.092;8.542;2023-03-13T05:24:15;98429.28;;;13.31;53.25
9893;BME280;4985;49.092;8.542;2023-03-13T05:26:42;98430.09;;;13.32;53.25
9893;BME280;4985;49.092;8.542;2023-03-13T05:29:08;98429.28;;;13.31;53.26
9893;BME280;4985;49.092;8.542;2023-03-13T05:31:35;98420.34;;;13.32;53.25
9893;BME280;4985;49.092;8.542;2023-03-13T05:34:01;98422.97;;;13.32;53.27
9893;BME280;4985;49.092;8.542;2023-03-13T05:36:29;98404.47;;;13.32;53.26
9893;BME280;4985;49.092;8.542;2023-03-13T05:38:56;98409.75;;;13.32;53.28
9893;BME280;4985;49.092;8.542;2023-03-13T05:41:22;98414.22;;;13.32;53.29
9893;BME280;4985;49.092;8.542;2023-03-13T05:43:49;98413.41;;;13.31;53.30
9893;BME280;4985;49.092;8.542;2023-03-13T05:46:15;98407.13;;;13.32;53.29
9893;BME280;4985;49.092;8.542;2023-03-13T05:48:42;98406.31;;;13.32;53.30
9893;BME280;4985;49.092;8.542;2023-03-13T05:51:09;98399.19;;;13.32;53.29
9893;BME280;4985;49.092;8.542;2023-03-13T05:53:37;98399.19;;;13.32;53.32
9893;BME280;4985;49.092;8.542;2023-03-13T05:56:04;98404.47;;;13.32;53.32
9893;BME280;4985;49.092;8.542;2023-03-13T05:58:31;98410.56;;;13.33;53.33
9893;BME280;4985;49.092;8.542;2023-03-13T06:00:57;98408.75;;;13.33;53.32
9893;BME280;4985;49.092;8.542;2023-03-13T06:03:24;98410.56;;;13.33;53.31
9893;BME280;4985;49.092;8.542;2023-03-13T06:05:56;98407.94;;;13.33;53.32
9893;BME280;4985;49.092;8.542;2023-03-13T06:08:23;98384.94;;;13.33;53.31
9893;BME280;4985;49.092;8.542;2023-03-13T06:10:51;98380.47;;;13.34;53.30
9893;BME280;4985;49.092;8.542;2023-03-13T06:13:18;98384.94;;;13.33;53.32
9893;BME280;4985;49.092;8.542;2023-03-13T06:15:50;98380.47;;;13.34;53.35
9893;BME280;4985;49.092;8.542;2023-03-13T06:18:16;98389.44;;;13.33;53.36
9893;BME280;4985;49.092;8.542;2023-03-13T06:20:43;98378.66;;;13.34;53.36
9893;BME280;4985;49.092;8.542;2023-03-13T06:23:10;98396.34;;;13.34;53.35
9893;BME280;4985;49.092;8.542;2023-03-13T06:25:36;98382.09;;;13.35;53.33
9893;BME280;4985;49.092;8.542;2023-03-13T06:28:05;98382.91;;;13.35;53.32
9893;BME280;4985;49.092;8.542;2023-03-13T06:30:31;98396.12;;;13.35;53.32
9893;BME280;4985;49.092;8.542;2023-03-13T06:32:58;98394.28;;;13.36;53.35
9893;BME280;4985;49.092;8.542;2023-03-13T06:35:24;98389.00;;;13.36;53.35
9893;BME280;4985;49.092;8.542;2023-03-13T06:37:51;98402.22;;;13.36;53.35
9893;BME280;4985;49.092;8.542;2023-03-13T06:40:17;98402.22;;;13.36;53.37
9893;BME280;4985;49.092;8.542;2023-03-13T06:42:44;98395.13;;;13.36;53.38
9893;BME280;4985;49.092;8.542;2023-03-13T06:45:12;98404.69;;;13.37;53.39
9893;BME280;4985;49.092;8.542;2023-03-13T06:47:39;98409.34;;;13.35;53.40
9893;BME280;4985;49.092;8.542;2023-03-13T06:50:06;98400.44;;;13.36;53.44
9893;BME280;4985;49.092;8.542;2023-03-13T06:52:33;98405.72;;;13.36;53.43
9893;BME280;4985;49.092;8.542;2023-03-13T06:55:02;98417.09;;;13.37;53.44
9893;BME280;4985;49.092;8.542;2023-03-13T06:57:28;98396.94;;;13.36;53.46
9893;BME280;4985;49.092;8.542;2023-03-13T06:59:55;98388.19;;;13.35;53.46
9893;BME280;4985;49.092;8.542;2023-03-13T07:02:23;98396.12;;;13.35;53.46
9893;BME280;4985;49.092;8.542;2023-03-13T07:04:49;98394.13;;;13.37;53.46
9893;BME280;4985;49.092;8.542;2023-03-13T07:07:16;98401.25;;;13.37;53.47
9893;BME280;4985;49.092;8.542;2023-03-13T07:09:43;98397.78;;;13.36;53.47
9893;BME280;4985;49.092;8.542;2023-03-13T07:12:09;98402.22;;;13.36;53.49
9893;BME280;4985;49.092;8.542;2023-03-13T07:14:36;98395.94;;;13.37;53.51
9893;BME280;4985;49.092;8.542;2023-03-13T07:17:02;98377.25;;;13.38;53.49
9893;BME280;4985;49.092;8.542;2023-03-13T07:19:30;98379.88;;;13.38;53.49
9893;BME280;4985;49.092;8.542;2023-03-13T07:21:57;98378.88;;;13.39;53.49
9893;BME280;4985;49.092;8.542;2023-03-13T07:24:23;98380.69;;;13.39;53.50
9893;BME280;4985;49.092;8.542;2023-03-13T07:26:50;98380.50;;;13.40;53.47
9893;BME280;4985;49.092;8.542;2023-03-13T07:29:16;98373.59;;;13.39;53.46
9893;BME280;4985;49.092;8.542;2023-03-13T07:31:43;98355.88;;;13.40;53.49
9893;BME280;4985;49.092;8.542;2023-03-13T07:34:09;98360.16;;;13.41;53.47
9893;BME280;4985;49.092;8.542;2023-03-13T07:36:37;98357.31;;;13.43;53.46
9893;BME280;4985;49.092;8.542;2023-03-13T07:39:05;98351.00;;;13.44;53.48
9893;BME280;4985;49.092;8.542;2023-03-13T07:41:32;98336.97;;;13.43;53.47
9893;BME280;4985;49.092;8.542;2023-03-13T07:43:59;98334.13;;;13.45;53.48
9893;BME280;4985;49.092;8.542;2023-03-13T07:46:26;98347.53;;;13.43;53.50
9893;BME280;4985;49.092;8.542;2023-03-13T07:48:52;98338.59;;;13.44;53.51
9893;BME280;4985;49.092;8.542;2023-03-13T07:51:21;98321.91;;;13.44;53.51
9893;BME280;4985;49.092;8.542;2023-03-13T07:53:49;98335.75;;;13.46;53.51
9893;BME280;4985;49.092;8.542;2023-03-13T07:56:18;98342.03;;;13.45;53.54
9893;BME280;4985;49.092;8.542;2023-03-13T07:58:45;98325.16;;;13.46;53.56
9893;BME280;4985;49.092;8.542;2023-03-13T08:01:13;98325.16;;;13.46;53.55
9893;BME280;4985;49.092;8.542;2023-03-13T08:03:41;98312.97;;;13.45;53.55
9893;BME280;4985;49.092;8.542;2023-03-13T08:06:10;98314.63;;;13.39;53.57
9893;BME280;4985;49.092;8.542;2023-03-13T08:08:38;98326.78;;;13.47;53.55
9893;BME280;4985;49.092;8.542;2023-03-13T08:11:08;98334.53;;;13.48;53.57
9893;BME280;4985;49.092;8.542;2023-03-13T08:13:36;98338.97;;;13.48;53.58
9893;BME280;4985;49.092;8.542;2023-03-13T08:16:04;98334.53;;;13.48;53.60
9893;BME280;4985;49.092;8.542;2023-03-13T08:18:32;98349.38;;;13.49;53.59
9893;BME280;4985;49.092;8.542;2023-03-13T08:21:03;98346.75;;;13.49;53.58
9893;BME280;4985;49.092;8.542;2023-03-13T08:23:30;98358.12;;;13.50;53.58
9893;BME280;4985;49.092;8.542;2023-03-13T08:26:00;98358.12;;;13.50;53.60
9893;BME280;4985;49.092;8.542;2023-03-13T08:28:28;98354.47;;;13.51;53.62
9893;BME280;4985;49.092;8.542;2023-03-13T08:30:55;98356.09;;;13.52;53.60
9893;BME280;4985;49.092;8.542;2023-03-13T08:33:21;98347.13;;;13.53;53.59
9893;BME280;4985;49.092;8.542;2023-03-13T08:35:48;98351.41;;;13.54;53.58
9893;BME280;4985;49.092;8.542;2023-03-13T08:38:15;98359.34;;;13.54;53.58
9893;BME280;4985;49.092;8.542;2023-03-13T08:40:42;98352.22;;;13.54;53.58
9893;BME280;4985;49.092;8.542;2023-03-13T08:43:09;98350.38;;;13.55;53.60
9893;BME280;4985;49.092;8.542;2023-03-13T08:45:37;98379.25;;;13.56;53.60
9893;BME280;4985;49.092;8.542;2023-03-13T08:48:03;98371.53;;;13.55;53.60
9893;BME280;4985;49.092;8.542;2023-03-13T08:50:30;98368.69;;;13.56;53.58
9893;BME280;4985;49.092;8.542;2023-03-13T08:52:56;98377.41;;;13.57;53.58
9893;BME280;4985;49.092;8.542;2023-03-13T08:55:23;98393.09;;;13.58;53.58
9893;BME280;4985;49.092;8.542;2023-03-13T08:57:49;98388.00;;;13.57;53.59
9893;BME280;4985;49.092;8.542;2023-03-13T09:00:17;98392.28;;;13.58;53.57
9893;BME280;4985;49.092;8.542;2023-03-13T09:02:45;98386.97;;;13.58;53.59
9893;BME280;4985;49.092;8.542;2023-03-13T09:05:11;98398.38;;;13.58;53.58
9893;BME280;4985;49.092;8.542;2023-03-13T09:07:38;98387.63;;;13.60;53.56
9893;BME280;4985;49.092;8.542;2023-03-13T09:10:06;98387.63;;;13.60;53.54
9893;BME280;4985;49.092;8.542;2023-03-13T09:12:33;98388.44;;;13.60;53.57
9893;BME280;4985;49.092;8.542;2023-03-13T09:14:59;98399.81;;;13.61;53.57
9893;BME280;4985;49.092;8.542;2023-03-13T09:17:26;98386.59;;;13.61;53.54
9893;BME280;4985;49.092;8.542;2023-03-13T09:19:54;98397.97;;;13.61;53.56
9893;BME280;4985;49.092;8.542;2023-03-13T09:22:20;98393.50;;;13.62;53.55
9893;BME280;4985;49.092;8.542;2023-03-13T09:24:47;98395.75;;;13.65;53.79
9893;BME280;4985;49.092;8.542;2023-03-13T09:27:13;98382.50;;;13.65;53.76
9893;BME280;4985;49.092;8.542;2023-03-13T09:29:40;98374.59;;;13.65;53.72
9893;BME280;4985;49.092;8.542;2023-03-13T09:32:08;98374.59;;;13.65;53.69
9893;BME280;4985;49.092;8.542;2023-03-13T09:34:35;98378.03;;;13.65;53.69
9893;BME280;4985;49.092;8.542;2023-03-13T09:37:03;98376.81;;;13.68;53.65
9893;BME280;4985;49.092;8.542;2023-03-13T09:39:30;98366.22;;;13.68;53.64
9893;BME280;4985;49.092;8.542;2023-03-13T09:42:02;98361.75;;;13.68;53.63
9893;BME280;4985;49.092;8.542;2023-03-13T09:44:34;98375.78;;;13.69;53.63
9893;BME280;4985;49.092;8.542;2023-03-13T09:47:05;98376.59;;;13.69;53.64
9893;BME280;4985;49.092;8.542;2023-03-13T09:49:37;98366.03;;;13.69;53.65
9893;BME280;4985;49.092;8.542;2023-03-13T09:52:14;98360.56;;;13.71;53.64
9893;BME280;4985;49.092;8.542;2023-03-13T09:54:45;98365.84;;;13.71;53.65
9893;BME280;4985;49.092;8.542;2023-03-13T09:57:19;98364.59;;;13.74;53.67
9893;BME280;4985;49.092;8.542;2023-03-13T09:59:51;98357.69;;;13.73;53.65
9893;BME280;4985;49.092;8.542;2023-03-13T10:02:26;98363.81;;;13.73;53.67
9893;BME280;4985;49.092;8.542;2023-03-13T10:04:59;98349.56;;;13.74;53.68
9893;BME280;4985;49.092;8.542;2023-03-13T10:07:29;98359.12;;;13.75;53.66
9893;BME280;4985;49.092;8.542;2023-03-13T10:09:57;98356.47;;;13.75;53.67
9893;BME280;4985;49.092;8.542;2023-03-13T10:12:28;98358.09;;;13.76;53.65
9893;BME280;4985;49.092;8.542;2023-03-13T10:15:16;98360.53;;;13.78;53.63
9893;BME280;4985;49.092;8.542;2023-03-13T10:17:44;98352.59;;;13.78;53.64
9893;BME280;4985;49.092;8.542;2023-03-13T10:20:21;98346.28;;;13.79;53.63
9893;BME280;4985;49.092;8.542;2023-03-13T10:22:54;98342.81;;;13.78;53.62
9893;BME280;4985;49.092;8.542;2023-03-13T10:25:33;98329.81;;;13.77;53.60
9893;BME280;4985;49.092;8.542;2023-03-13T10:28:00;98340.78;;;13.80;53.60
9893;BME280;4985;49.092;8.542;2023-03-13T10:30:28;98337.09;;;13.81;53.58
9893;BME280;4985;49.092;8.542;2023-03-13T10:32:59;98338.56;;;13.84;53.57
9893;BME280;4985;49.092;8.542;2023-03-13T10:35:31;98326.13;;;13.84;53.55
9893;BME280;4985;49.092;8.542;2023-03-13T10:38:02;98333.25;;;13.84;53.55
9893;BME280;4985;49.092;8.542;2023-03-13T10:40:30;98327.16;;;13.83;53.55
9893;BME280;4985;49.092;8.542;2023-03-13T10:43:02;98334.06;;;13.84;53.55
9893;BME280;4985;49.092;8.542;2023-03-13T10:45:31;98315.34;;;13.86;53.54
9893;BME280;4985;49.092;8.542;2023-03-13T10:48:01;98314.13;;;13.88;53.50
9893;BME280;4985;49.092;8.542;2023-03-13T10:50:32;98308.00;;;13.88;53.49
9893;BME280;4985;49.092;8.542;2023-03-13T10:53:20;98310.44;;;13.89;53.48
9893;BME280;4985;49.092;8.542;2023-03-13T10:55:47;98297.00;;;13.91;53.48
9893;BME280;4985;49.092;8.542;2023-03-13T10:58:17;98297.00;;;13.91;53.47
9893;BME280;4985;49.092;8.542;2023-03-13T11:00:46;98283.56;;;13.92;53.45
9893;BME280;4985;49.092;8.542;2023-03-13T11:03:15;98286.03;;;13.94;53.42
9893;BME280;4985;49.092;8.542;2023-03-13T11:05:43;98270.97;;;13.94;53.41
9893;BME280;4985;49.092;8.542;2023-03-13T11:08:19;98271.78;;;13.95;53.40
9893;BME280;4985;49.092;8.542;2023-03-13T11:10:55;98267.28;;;13.95;53.42
9893;BME280;4985;49.092;8.542;2023-03-13T11:13:31;98268.91;;;13.96;53.42
9893;BME280;4985;49.092;8.542;2023-03-13T11:16:05;98262.59;;;13.97;53.42
9893;BME280;4985;49.092;8.542;2023-03-13T11:18:39;98252.81;;;13.98;53.42
9893;BME280;4985;49.092;8.542;2023-03-13T11:21:16;98236.56;;;13.94;53.44
9893;BME280;4985;49.092;8.542;2023-03-13T11:23:52;98230.63;;;13.99;53.46
9893;BME280;4985;49.092;8.542;2023-03-13T11:26:32;98231.44;;;13.99;53.47
9893;BME280;4985;49.092;8.542;2023-03-13T11:29:06;98232.25;;;14.00;53.48
9893;BME280;4985;49.092;8.542;2023-03-13T11:31:38;98224.91;;;14.02;53.46
9893;BME280;4985;49.092;8.542;2023-03-13T11:34:10;98222.28;;;14.02;53.45
9893;BME280;4985;49.092;8.542;2023-03-13T11:36:46;98208.00;;;14.03;53.44
9893;BME280;4985;49.092;8.542;2023-03-13T11:39:37;98206.81;;;14.06;53.42
9893;BME280;4985;49.092;8.542;2023-03-13T11:42:16;98200.47;;;14.07;53.41
9893;BME280;4985;49.092;8.542;2023-03-13T11:44:56;98195.19;;;14.07;53.42
9893;BME280;4985;49.092;8.542;2023-03-13T11:47:43;98188.88;;;14.08;53.42
9893;BME280;4985;49.092;8.542;2023-03-13T11:50:22;98178.06;;;14.09;53.39
9893;BME280;4985;49.092;8.542;2023-03-13T11:53:06;98183.16;;;14.11;53.37
9893;BME280;4985;49.092;8.542;2023-03-13T11:55:57;98171.53;;;14.12;53.36
9893;BME280;4985;49.092;8.542;2023-03-13T11:58:40;98165.81;;;14.15;53.34
9893;BME280;4985;49.092;8.542;2023-03-13T12:01:11;98166.84;;;14.14;53.33
9893;BME280;4985;49.092;8.542;2023-03-13T12:03:43;98168.28;;;14.16;53.34
9893;BME280;4985;49.092;8.542;2023-03-13T12:06:24;98151.59;;;14.16;53.36
9893;BME280;4985;49.092;8.542;2023-03-13T12:08:53;98144.62;;;14.15;53.34
9893;BME280;4985;49.092;8.542;2023-03-13T12:11:26;98138.34;;;14.16;53.33
9893;BME280;4985;49.092;8.542;2023-03-13T12:13:58;98141.59;;;14.18;53.33
9893;BME280;4985;49.092;8.542;2023-03-13T12:16:37;98127.53;;;14.17;53.33
9893;BME280;4985;49.092;8.542;2023-03-13T12:19:10;98121.22;;;14.18;53.34
9893;BME280;4985;49.092;8.542;2023-03-13T12:21:41;98114.09;;;14.19;53.32
9893;BME280;4985;49.092;8.542;2023-03-13T12:24:17;98111.44;;;14.19;53.33
9893;BME280;4985;49.092;8.542;2023-03-13T12:26:50;98101.44;;;14.21;53.33
9893;BME280;4985;49.092;8.542;2023-03-13T12:29:29;98094.31;;;14.21;53.31
9893;BME280;4985;49.092;8.542;2023-03-13T12:32:03;98082.72;;;14.22;53.29
9893;BME280;4985;49.092;8.542;2023-03-13T12:34:39;98071.75;;;14.19;53.30
9893;BME280;4985;49.092;8.542;2023-03-13T12:37:12;98083.50;;;14.23;53.31
9893;BME280;4985;49.092;8.542;2023-03-13T12:39:47;98074.53;;;14.24;53.29
9893;BME280;4985;49.092;8.542;2023-03-13T12:42:32;98060.50;;;14.23;53.30
9893;BME280;4985;49.092;8.542;2023-03-13T12:45:04;98045.44;;;14.24;53.32
9893;BME280;4985;49.092;8.542;2023-03-13T12:47:33;98053.16;;;14.25;53.33
9893;BME280;4985;49.092;8.542;2023-03-13T12:50:29;98046.25;;;14.24;53.34
9893;BME280;4985;49.092;8.542;2023-03-13T12:53:14;98015.28;;;14.25;53.34
9893;BME280;4985;49.092;8.542;2023-03-13T12:55:57;98015.06;;;14.26;53.34
9893;BME280;4985;49.092;8.542;2023-03-13T12:58:37;98008.97;;;14.26;53.35
9893;BME280;4985;49.092;8.542;2023-03-13T13:01:06;98015.91;;;14.27;53.36
9893;BME280;4985;49.092;8.542;2023-03-13T13:03:36;97991.06;;;14.28;53.36
9893;BME280;4985;49.092;8.542;2023-03-13T13:06:06;97988.41;;;14.28;53.36
9893;BME280;4985;49.092;8.542;2023-03-13T13:08:36;97987.38;;;14.29;53.39
9893;BME280;4985;49.092;8.542;2023-03-13T13:11:45;97968.84;;;14.29;53.40
9893;BME280;4985;49.092;8.542;2023-03-13T13:17:54;97960.47;;;14.32;53.42
9893;BME280;4985;49.092;8.542;2023-03-13T13:20:28;97955.97;;;14.33;53.41
9893;BME280;4985;49.092;8.542;2023-03-13T13:22:56;97946.19;;;14.33;53.43
9893;BME280;4985;49.092;8.542;2023-03-13T13:25:41;97946.19;;;14.33;53.45
9893;BME280;4985;49.092;8.542;2023-03-13T13:28:23;97942.53;;;14.34;53.45
9893;BME280;4985;49.092;8.542;2023-03-13T13:30:53;97937.22;;;14.34;53.49
9893;BME280;4985;49.092;8.542;2023-03-13T13:33:38;97934.34;;;14.36;53.47
9893;BME280;4985;49.092;8.542;2023-03-13T13:36:31;97936.78;;;14.37;53.46
9893;BME280;4985;49.092;8.542;2023-03-13T13:39:26;97927.81;;;14.38;53.44